sensor_id;sensor_type;location;lat;lon;timestamp;noise_LAeq;noise_LA_min;noise_LA_max;noise_LA01;noise_LA95
67298;Laerm;65443;51.436;5.978;2024-03-08T00:00:01;30.55;29.10;31.85;;
67298;Laerm;65443;51.436;5.978;2024-03-08T00:00:22;58.51;29.14;79.18;;
67298;Laerm;65443;51.436;5.978;2024-03-08T00:00:32;30.42;29.07;31.88;;
67298;Laerm;65443;51.436;5.978;2024-03-08T00:00:43;30.30;28.81;31.62;;
67298;Laerm;65443;51.436;5.978;2024-03-08T00:00:53;30.31;28.72;31.57;;
67298;Laerm;65443;51.436;5.978;2024-03-08T00:01:03;30.24;28.33;31.55;;
67298;Laerm;65443;51.436;5.978;2024-03-08T00:01:14;30.44;28.85;32.31;;
67298;Laerm;65443;51.436;5.978;2024-03-08T00:01:24;30.51;29.38;31.91;;
67298;Laerm;65443;51.436;5.978;2024-03-08T00:01:35;30.54;29.05;31.96;;
67298;Laerm;65443;51.436;5.978;2024-03-08T00:01:45;30.65;28.98;32.15;;
67298;Laerm;65443;51.436;5.978;2024-03-08T00:01:56;30.76;29.11;32.64;;
67298;Laerm;65443;51.436;5.978;2024-03-08T00:02:06;30.59;28.68;32.04;;
67298;Laerm;65443;51.436;5.978;2024-03-08T00:02:17;30.94;29.40;34.43;;
67298;Laerm;65443;51.436;5.978;2024-03-08T00:02:27;30.67;28.94;32.43;;
67298;Laerm;65443;51.436;5.978;2024-03-08T00:02:39;30.51;29.02;31.84;;
67298;Laerm;65443;51.436;5.978;2024-03-08T00:02:49;30.65;28.66;32.95;;
67298;Laerm;65443;51.436;5.978;2024-03-08T00:03:00;30.69;29.17;34.04;;
67298;Laerm;65443;51.436;5.978;2024-03-08T00:03:12;30.60;29.13;31.92;;
67298;Laerm;65443;51.436;5.978;2024-03-08T00:03:22;30.65;29.05;32.44;;
67298;Laerm;65443;51.436;5.978;2024-03-08T00:03:33;30.83;28.84;32.50;;
67298;Laerm;65443;51.436;5.978;2024-03-08T00:03:43;30.80;29.05;33.16;;
67298;Laerm;65443;51.436;5.978;2024-03-08T00:03:54;31.05;29.48;34.06;;
67298;Laerm;65443;51.436;5.978;2024-03-08T00:04:04;30.71;29.31;32.47;;
67298;Laerm;65443;51.436;5.978;2024-03-08T00:04:16;30.56;28.86;32.70;;
67298;Laerm;65443;51.436;5.978;2024-03-08T00:04:26;30.86;29.42;34.93;;
67298;Laerm;65443;51.436;5.978;2024-03-08T00:04:36;30.76;28.91;32.20;;
67298;Laerm;65443;51.436;5.978;2024-03-08T00:04:47;30.37;28.96;31.80;;
67298;Laerm;65443;51.436;5.978;2024-03-08T00:04:57;30.66;29.12;32.42;;
67298;Laerm;65443;51.436;5.978;2024-03-08T00:05:08;30.53;29.06;32.00;;
67298;Laerm;65443;51.436;5.978;2024-03-08T00:05:19;30.44;28.81;33.17;;
67298;Laerm;65443;51.436;5.978;2024-03-08T00:05:29;30.22;28.99;31.62;;
67298;Laerm;65443;51.436;5.978;2024-03-08T00:05:40;30.53;28.93;32.72;;
67298;Laerm;65443;51.436;5.978;2024-03-08T00:05:50;30.41;29.17;31.70;;
67298;Laerm;65443;51.436;5.978;2024-03-08T00:06:00;30.46;29.04;32.05;;
67298;Laerm;65443;51.436;5.978;2024-03-08T00:06:11;30.44;28.85;31.92;;
67298;Laerm;65443;51.436;5.978;2024-03-08T00:06:21;30.63;29.27;33.16;;
67298;Laerm;65443;51.436;5.978;2024-03-08T00:06:32;30.49;28.97;33.43;;
67298;Laerm;65443;51.436;5.978;2024-03-08T00:06:42;30.46;29.11;31.85;;
67298;Laerm;65443;51.436;5.978;2024-03-08T00:06:56;30.75;29.07;35.85;;
67298;Laerm;65443;51.436;5.978;2024-03-08T00:07:06;30.69;29.41;32.58;;
67298;Laerm;65443;51.436;5.978;2024-03-08T00:07:17;30.53;28.90;31.94;;
67298;Laerm;65443;51.436;5.978;2024-03-08T00:07:27;30.42;29.07;31.94;;
67298;Laerm;65443;51.436;5.978;2024-03-08T00:07:38;30.42;28.97;32.05;;
67298;Laerm;65443;51.436;5.978;2024-03-08T00:07:48;30.45;28.74;35.08;;
67298;Laerm;65443;51.436;5.978;2024-03-08T00:07:59;30.37;28.96;31.78;;
67298;Laerm;65443;51.436;5.978;2024-03-08T00:08:10;30.54;29.02;31.82;;
67298;Laerm;65443;51.436;5.978;2024-03-08T00:08:20;30.77;29.10;33.80;;
67298;Laerm;65443;51.436;5.978;2024-03-08T00:08:30;31.57;28.83;48.07;;
67298;Laerm;65443;51.436;5.978;2024-03-08T00:08:41;31.55;28.81;47.28;;
67298;Laerm;65443;51.436;5.978;2024-03-08T00:08:51;30.60;29.21;32.01;;
67298;Laerm;65443;51.436;5.978;2024-03-08T00:09:01;31.08;29.25;37.70;;
67298;Laerm;65443;51.436;5.978;2024-03-08T00:09:12;30.95;28.77;41.33;;
67298;Laerm;65443;51.436;5.978;2024-03-08T00:09:22;31.08;29.22;34.58;;
67298;Laerm;65443;51.436;5.978;2024-03-08T00:09:33;31.93;29.65;36.61;;
67298;Laerm;65443;51.436;5.978;2024-03-08T00:09:43;31.14;29.58;32.84;;
67298;Laerm;65443;51.436;5.978;2024-03-08T00:09:53;32.01;29.78;37.95;;
67298;Laerm;65443;51.436;5.978;2024-03-08T00:10:04;34.61;29.97;41.79;;
67298;Laerm;65443;51.436;5.978;2024-03-08T00:10:14;32.95;29.26;38.14;;
67298;Laerm;65443;51.436;5.978;2024-03-08T00:10:25;32.48;29.29;35.66;;
67298;Laerm;65443;51.436;5.978;2024-03-08T00:10:35;32.52;30.18;36.58;;
67298;Laerm;65443;51.436;5.978;2024-03-08T00:10:45;32.34;29.83;39.87;;
67298;Laerm;65443;51.436;5.978;2024-03-08T00:10:56;30.92;28.80;32.26;;
67298;Laerm;65443;51.436;5.978;2024-03-08T00:11:06;30.78;29.10;41.19;;
67298;Laerm;65443;51.436;5.978;2024-03-08T00:11:18;30.63;28.56;33.48;;
67298;Laerm;65443;51.436;5.978;2024-03-08T00:11:28;30.62;28.97;33.18;;
67298;Laerm;65443;51.436;5.978;2024-03-08T00:11:38;30.73;28.50;35.37;;
67298;Laerm;65443;51.436;5.978;2024-03-08T00:11:49;30.55;29.02;32.47;;
67298;Laerm;65443;51.436;5.978;2024-03-08T00:12:00;30.35;28.81;31.58;;
67298;Laerm;65443;51.436;5.978;2024-03-08T00:12:10;30.43;29.22;31.60;;
67298;Laerm;65443;51.436;5.978;2024-03-08T00:12:21;30.66;29.09;32.52;;
67298;Laerm;65443;51.436;5.978;2024-03-08T00:12:31;30.51;28.76;32.06;;
67298;Laerm;65443;51.436;5.978;2024-03-08T00:12:42;30.48;29.11;34.63;;
67298;Laerm;65443;51.436;5.978;2024-03-08T00:12:53;30.50;28.95;32.20;;
67298;Laerm;65443;51.436;5.978;2024-03-08T00:13:03;30.52;29.06;32.61;;
67298;Laerm;65443;51.436;5.978;2024-03-08T00:13:14;30.55;28.68;32.03;;
67298;Laerm;65443;51.436;5.978;2024-03-08T00:13:24;30.78;29.57;32.62;;
67298;Laerm;65443;51.436;5.978;2024-03-08T00:13:35;31.01;29.07;35.39;;
67298;Laerm;65443;51.436;5.978;2024-03-08T00:13:46;32.09;29.95;36.02;;
67298;Laerm;65443;51.436;5.978;2024-03-08T00:13:57;33.54;30.29;37.15;;
67298;Laerm;65443;51.436;5.978;2024-03-08T00:14:07;32.26;30.00;36.97;;
67298;Laerm;65443;51.436;5.978;2024-03-08T00:14:17;32.33;29.92;35.21;;
67298;Laerm;65443;51.436;5.978;2024-03-08T00:14:28;59.21;34.20;73.69;;
67298;Laerm;65443;51.436;5.978;2024-03-08T00:14:38;46.76;35.52;56.07;;
67298;Laerm;65443;51.436;5.978;2024-03-08T00:14:49;35.69;33.41;38.94;;
67298;Laerm;65443;51.436;5.978;2024-03-08T00:14:59;33.62;31.21;39.69;;
67298;Laerm;65443;51.436;5.978;2024-03-08T00:15:12;31.54;29.46;34.42;;
67298;Laerm;65443;51.436;5.978;2024-03-08T00:15:24;31.61;29.55;36.66;;
67298;Laerm;65443;51.436;5.978;2024-03-08T00:15:34;30.98;29.54;32.65;;
67298;Laerm;65443;51.436;5.978;2024-03-08T00:15:45;31.15;29.05;32.72;;
67298;Laerm;65443;51.436;5.978;2024-03-08T00:15:55;30.96;29.15;33.00;;
67298;Laerm;65443;51.436;5.978;2024-03-08T00:16:07;32.07;29.27;39.27;;
67298;Laerm;65443;51.436;5.978;2024-03-08T00:16:19;31.14;29.44;35.42;;
67298;Laerm;65443;51.436;5.978;2024-03-08T00:16:30;31.53;29.44;37.01;;
67298;Laerm;65443;51.436;5.978;2024-03-08T00:16:40;31.32;29.80;32.92;;
67298;Laerm;65443;51.436;5.978;2024-03-08T00:16:53;30.82;29.25;32.31;;
67298;Laerm;65443;51.436;5.978;2024-03-08T00:17:04;31.02;29.19;32.44;;
67298;Laerm;65443;51.436;5.978;2024-03-08T00:17:14;31.06;29.41;32.86;;
67298;Laerm;65443;51.436;5.978;2024-03-08T00:17:25;30.93;29.26;36.36;;
67298;Laerm;65443;51.436;5.978;2024-03-08T00:17:37;30.85;29.50;32.38;;
67298;Laerm;65443;51.436;5.978;2024-03-08T00:17:48;30.69;29.38;32.33;;
67298;Laerm;65443;51.436;5.978;2024-03-08T00:17:58;30.85;29.42;33.89;;
67298;Laerm;65443;51.436;5.978;2024-03-08T00:18:08;31.10;29.80;35.24;;
67298;Laerm;65443;51.436;5.978;2024-03-08T00:18:19;30.79;29.07;32.46;;
67298;Laerm;65443;51.436;5.978;2024-03-08T00:18:29;30.80;29.25;32.25;;
67298;Laerm;65443;51.436;5.978;2024-03-08T00:18:39;30.79;29.30;32.49;;
67298;Laerm;65443;51.436;5.978;2024-03-08T00:18:50;30.94;29.44;32.15;;
67298;Laerm;65443;51.436;5.978;2024-03-08T00:19:00;30.83;28.88;32.66;;
67298;Laerm;65443;51.436;5.978;2024-03-08T00:19:11;30.89;29.31;34.05;;
67298;Laerm;65443;51.436;5.978;2024-03-08T00:19:21;31.27;29.57;33.54;;
67298;Laerm;65443;51.436;5.978;2024-03-08T00:19:32;31.13;29.61;33.21;;
67298;Laerm;65443;51.436;5.978;2024-03-08T00:19:42;32.51;30.15;36.17;;
67298;Laerm;65443;51.436;5.978;2024-03-08T00:19:53;31.93;29.60;37.50;;
67298;Laerm;65443;51.436;5.978;2024-03-08T00:20:04;31.69;29.49;33.70;;
67298;Laerm;65443;51.436;5.978;2024-03-08T00:20:15;32.70;30.39;36.28;;
67298;Laerm;65443;51.436;5.978;2024-03-08T00:20:27;32.50;30.47;36.71;;
67298;Laerm;65443;51.436;5.978;2024-03-08T00:20:38;32.47;30.30;36.10;;
67298;Laerm;65443;51.436;5.978;2024-03-08T00:20:48;33.66;30.85;37.39;;
67298;Laerm;65443;51.436;5.978;2024-03-08T00:20:59;34.89;31.63;39.91;;
67298;Laerm;65443;51.436;5.978;2024-03-08T00:21:10;34.58;30.09;40.30;;
67298;Laerm;65443;51.436;5.978;2024-03-08T00:21:22;33.30;29.91;36.95;;
67298;Laerm;65443;51.436;5.978;2024-03-08T00:21:32;33.42;31.10;36.63;;
67298;Laerm;65443;51.436;5.978;2024-03-08T00:21:42;36.57;31.53;41.60;;
67298;Laerm;65443;51.436;5.978;2024-03-08T00:21:52;41.31;38.62;44.53;;
67298;Laerm;65443;51.436;5.978;2024-03-08T00:22:03;36.54;31.54;41.18;;
67298;Laerm;65443;51.436;5.978;2024-03-08T00:22:13;37.64;32.99;42.65;;
67298;Laerm;65443;51.436;5.978;2024-03-08T00:22:23;34.39;30.35;40.60;;
67298;Laerm;65443;51.436;5.978;2024-03-08T00:22:34;30.86;29.16;32.52;;
67298;Laerm;65443;51.436;5.978;2024-03-08T00:22:44;30.59;28.95;32.18;;
67298;Laerm;65443;51.436;5.978;2024-03-08T00:22:56;30.48;29.46;31.78;;
67298;Laerm;65443;51.436;5.978;2024-03-08T00:23:07;30.37;28.98;32.06;;
67298;Laerm;65443;51.436;5.978;2024-03-08T00:23:18;30.41;28.78;31.59;;
67298;Laerm;65443;51.436;5.978;2024-03-08T00:23:28;30.73;29.30;32.37;;
67298;Laerm;65443;51.436;5.978;2024-03-08T00:23:38;30.57;28.85;31.87;;
67298;Laerm;65443;51.436;5.978;2024-03-08T00:23:49;30.94;29.39;32.81;;
67298;Laerm;65443;51.436;5.978;2024-03-08T00:23:59;31.56;29.46;34.43;;
67298;Laerm;65443;51.436;5.978;2024-03-08T00:24:10;31.58;29.28;35.96;;
67298;Laerm;65443;51.436;5.978;2024-03-08T00:24:20;31.24;29.81;33.21;;
67298;Laerm;65443;51.436;5.978;2024-03-08T00:24:35;31.18;29.17;34.08;;
67298;Laerm;65443;51.436;5.978;2024-03-08T00:24:45;30.89;29.15;32.35;;
67298;Laerm;65443;51.436;5.978;2024-03-08T00:24:55;31.28;29.56;35.97;;
67298;Laerm;65443;51.436;5.978;2024-03-08T00:25:06;31.54;29.90;34.03;;
67298;Laerm;65443;51.436;5.978;2024-03-08T00:25:20;32.64;30.14;38.51;;
67298;Laerm;65443;51.436;5.978;2024-03-08T00:25:30;31.27;29.63;38.78;;
67298;Laerm;65443;51.436;5.978;2024-03-08T00:25:40;31.42;29.84;33.04;;
67298;Laerm;65443;51.436;5.978;2024-03-08T00:25:51;31.12;29.59;32.53;;
67298;Laerm;65443;51.436;5.978;2024-03-08T00:26:01;31.00;29.22;32.45;;
67298;Laerm;65443;51.436;5.978;2024-03-08T00:26:13;30.84;29.12;32.37;;
67298;Laerm;65443;51.436;5.978;2024-03-08T00:26:24;30.69;29.38;31.97;;
67298;Laerm;65443;51.436;5.978;2024-03-08T00:26:34;30.56;29.14;32.01;;
67298;Laerm;65443;51.436;5.978;2024-03-08T00:26:44;30.40;28.77;31.85;;
67298;Laerm;65443;51.436;5.978;2024-03-08T00:26:55;30.47;28.74;31.91;;
67298;Laerm;65443;51.436;5.978;2024-03-08T00:27:05;30.38;28.87;31.97;;
67298;Laerm;65443;51.436;5.978;2024-03-08T00:27:16;30.22;28.81;31.67;;
67298;Laerm;65443;51.436;5.978;2024-03-08T00:27:26;30.14;28.84;31.34;;
67298;Laerm;65443;51.436;5.978;2024-03-08T00:27:37;30.25;29.00;31.64;;
67298;Laerm;65443;51.436;5.978;2024-03-08T00:27:48;30.24;28.80;31.64;;
67298;Laerm;65443;51.436;5.978;2024-03-08T00:28:00;30.25;28.71;31.54;;
67298;Laerm;65443;51.436;5.978;2024-03-08T00:28:10;30.17;28.93;31.63;;
67298;Laerm;65443;51.436;5.978;2024-03-08T00:28:24;30.24;28.82;31.65;;
67298;Laerm;65443;51.436;5.978;2024-03-08T00:28:37;30.10;28.31;31.60;;
67298;Laerm;65443;51.436;5.978;2024-03-08T00:28:48;30.31;28.73;31.84;;
67298;Laerm;65443;51.436;5.978;2024-03-08T00:28:58;30.93;29.35;33.55;;
67298;Laerm;65443;51.436;5.978;2024-03-08T00:29:09;32.99;30.22;36.28;;
67298;Laerm;65443;51.436;5.978;2024-03-08T00:29:19;30.76;29.22;32.36;;
67298;Laerm;65443;51.436;5.978;2024-03-08T00:29:29;32.08;29.71;35.29;;
67298;Laerm;65443;51.436;5.978;2024-03-08T00:29:40;31.08;29.26;33.47;;
67298;Laerm;65443;51.436;5.978;2024-03-08T00:29:50;32.48;29.88;35.15;;
67298;Laerm;65443;51.436;5.978;2024-03-08T00:30:00;37.65;33.42;42.19;;
67298;Laerm;65443;51.436;5.978;2024-03-08T00:30:11;39.46;35.13;44.36;;
67298;Laerm;65443;51.436;5.978;2024-03-08T00:30:23;35.50;32.50;40.42;;
67298;Laerm;65443;51.436;5.978;2024-03-08T00:30:35;34.73;30.85;39.34;;
67298;Laerm;65443;51.436;5.978;2024-03-08T00:30:45;31.11;29.39;33.12;;
67298;Laerm;65443;51.436;5.978;2024-03-08T00:30:56;30.57;28.68;32.52;;
67298;Laerm;65443;51.436;5.978;2024-03-08T00:31:07;58.31;29.58;72.54;;
67298;Laerm;65443;51.436;5.978;2024-03-08T00:31:17;32.58;29.83;39.00;;
67298;Laerm;65443;51.436;5.978;2024-03-08T00:31:27;31.20;29.42;33.65;;
67298;Laerm;65443;51.436;5.978;2024-03-08T00:31:38;30.96;29.36;32.95;;
67298;Laerm;65443;51.436;5.978;2024-03-08T00:31:48;31.23;29.54;33.63;;
67298;Laerm;65443;51.436;5.978;2024-03-08T00:31:59;31.60;29.67;35.10;;
67298;Laerm;65443;51.436;5.978;2024-03-08T00:32:09;31.26;29.48;33.16;;
67298;Laerm;65443;51.436;5.978;2024-03-08T00:32:21;30.95;29.12;32.60;;
67298;Laerm;65443;51.436;5.978;2024-03-08T00:32:34;31.25;29.75;33.87;;
67298;Laerm;65443;51.436;5.978;2024-03-08T00:32:44;32.93;30.47;40.70;;
67298;Laerm;65443;51.436;5.978;2024-03-08T00:32:55;32.34;30.44;35.33;;
67298;Laerm;65443;51.436;5.978;2024-03-08T00:33:05;31.61;29.72;34.03;;
67298;Laerm;65443;51.436;5.978;2024-03-08T00:33:15;31.25;29.34;33.79;;
67298;Laerm;65443;51.436;5.978;2024-03-08T00:33:26;31.06;28.91;32.76;;
67298;Laerm;65443;51.436;5.978;2024-03-08T00:33:37;31.05;28.93;32.93;;
67298;Laerm;65443;51.436;5.978;2024-03-08T00:33:49;31.15;29.23;34.38;;
67298;Laerm;65443;51.436;5.978;2024-03-08T00:33:59;30.54;29.12;32.27;;
67298;Laerm;65443;51.436;5.978;2024-03-08T00:34:09;30.22;28.45;31.68;;
67298;Laerm;65443;51.436;5.978;2024-03-08T00:34:21;30.01;28.54;31.31;;
67298;Laerm;65443;51.436;5.978;2024-03-08T00:34:32;30.17;28.87;31.46;;
67298;Laerm;65443;51.436;5.978;2024-03-08T00:34:44;30.35;28.77;31.72;;
67298;Laerm;65443;51.436;5.978;2024-03-08T00:34:54;30.29;28.72;32.24;;
67298;Laerm;65443;51.436;5.978;2024-03-08T00:35:05;30.42;29.02;32.02;;
67298;Laerm;65443;51.436;5.978;2024-03-08T00:35:18;30.49;28.70;33.64;;
67298;Laerm;65443;51.436;5.978;2024-03-08T00:35:28;30.40;28.86;31.90;;
67298;Laerm;65443;51.436;5.978;2024-03-08T00:35:38;32.44;28.99;48.42;;
67298;Laerm;65443;51.436;5.978;2024-03-08T00:35:49;30.55;29.21;31.95;;
67298;Laerm;65443;51.436;5.978;2024-03-08T00:35:59;30.70;28.88;32.19;;
67298;Laerm;65443;51.436;5.978;2024-03-08T00:36:10;31.52;29.39;46.25;;
67298;Laerm;65443;51.436;5.978;2024-03-08T00:36:20;30.87;29.23;33.16;;
67298;Laerm;65443;51.436;5.978;2024-03-08T00:36:30;30.59;29.11;32.27;;
67298;Laerm;65443;51.436;5.978;2024-03-08T00:36:41;30.59;29.06;32.35;;
67298;Laerm;65443;51.436;5.978;2024-03-08T00:36:51;30.60;28.85;31.82;;
67298;Laerm;65443;51.436;5.978;2024-03-08T00:37:03;31.12;29.39;32.62;;
67298;Laerm;65443;51.436;5.978;2024-03-08T00:37:14;31.32;29.64;34.73;;
67298;Laerm;65443;51.436;5.978;2024-03-08T00:37:25;32.75;29.75;36.32;;
67298;Laerm;65443;51.436;5.978;2024-03-08T00:37:35;34.22;30.93;38.08;;
67298;Laerm;65443;51.436;5.978;2024-03-08T00:37:45;32.45;30.54;36.86;;
67298;Laerm;65443;51.436;5.978;2024-03-08T00:37:58;37.30;31.69;44.30;;
67298;Laerm;65443;51.436;5.978;2024-03-08T00:38:09;38.16;34.51;41.44;;
67298;Laerm;65443;51.436;5.978;2024-03-08T00:38:19;34.72;30.65;38.11;;
67298;Laerm;65443;51.436;5.978;2024-03-08T00:38:29;31.25;29.47;34.59;;
67298;Laerm;65443;51.436;5.978;2024-03-08T00:38:41;31.49;29.40;33.89;;
67298;Laerm;65443;51.436;5.978;2024-03-08T00:38:52;38.18;31.87;43.10;;
67298;Laerm;65443;51.436;5.978;2024-03-08T00:39:02;41.50;36.20;46.32;;
67298;Laerm;65443;51.436;5.978;2024-03-08T00:39:16;45.60;33.68;53.96;;
67298;Laerm;65443;51.436;5.978;2024-03-08T00:39:26;42.49;34.47;48.67;;
67298;Laerm;65443;51.436;5.978;2024-03-08T00:39:36;34.83;31.63;37.50;;
67298;Laerm;65443;51.436;5.978;2024-03-08T00:39:47;32.07;30.14;33.90;;
67298;Laerm;65443;51.436;5.978;2024-03-08T00:39:58;31.47;29.65;33.66;;
67298;Laerm;65443;51.436;5.978;2024-03-08T00:40:08;30.61;29.15;32.29;;
67298;Laerm;65443;51.436;5.978;2024-03-08T00:40:19;31.28;29.30;33.33;;
67298;Laerm;65443;51.436;5.978;2024-03-08T00:40:29;31.33;29.86;33.70;;
67298;Laerm;65443;51.436;5.978;2024-03-08T00:40:39;31.53;29.41;32.96;;
67298;Laerm;65443;51.436;5.978;2024-03-08T00:40:50;31.58;29.24;33.74;;
67298;Laerm;65443;51.436;5.978;2024-03-08T00:41:01;31.53;29.78;34.01;;
67298;Laerm;65443;51.436;5.978;2024-03-08T00:41:12;30.94;29.01;33.20;;
67298;Laerm;65443;51.436;5.978;2024-03-08T00:41:22;30.45;29.25;31.72;;
67298;Laerm;65443;51.436;5.978;2024-03-08T00:41:33;30.48;28.99;31.74;;
67298;Laerm;65443;51.436;5.978;2024-03-08T00:41:43;33.32;29.93;39.13;;
67298;Laerm;65443;51.436;5.978;2024-03-08T00:41:54;32.52;29.91;35.53;;
67298;Laerm;65443;51.436;5.978;2024-03-08T00:42:05;34.24;29.73;38.64;;
67298;Laerm;65443;51.436;5.978;2024-03-08T00:42:15;33.09;30.85;35.90;;
67298;Laerm;65443;51.436;5.978;2024-03-08T00:42:26;32.62;29.53;37.48;;
67298;Laerm;65443;51.436;5.978;2024-03-08T00:42:36;30.61;29.27;33.27;;
67298;Laerm;65443;51.436;5.978;2024-03-08T00:42:48;30.82;29.18;34.14;;
67298;Laerm;65443;51.436;5.978;2024-03-08T00:42:58;32.14;29.99;35.97;;
67298;Laerm;65443;51.436;5.978;2024-03-08T00:43:08;32.19;29.98;35.62;;
67298;Laerm;65443;51.436;5.978;2024-03-08T00:43:19;30.62;29.31;32.19;;
67298;Laerm;65443;51.436;5.978;2024-03-08T00:43:29;30.45;28.75;31.90;;
67298;Laerm;65443;51.436;5.978;2024-03-08T00:43:42;30.52;28.77;32.85;;
67298;Laerm;65443;51.436;5.978;2024-03-08T00:43:53;30.38;28.87;32.61;;
67298;Laerm;65443;51.436;5.978;2024-03-08T00:44:03;30.33;28.90;33.09;;
67298;Laerm;65443;51.436;5.978;2024-03-08T00:44:14;30.31;28.87;31.94;;
67298;Laerm;65443;51.436;5.978;2024-03-08T00:44:25;30.46;29.09;32.14;;
67298;Laerm;65443;51.436;5.978;2024-03-08T00:44:35;30.58;28.94;32.45;;
67298;Laerm;65443;51.436;5.978;2024-03-08T00:44:46;35.81;30.24;40.09;;
67298;Laerm;65443;51.436;5.978;2024-03-08T00:44:56;41.38;37.96;46.22;;
67298;Laerm;65443;51.436;5.978;2024-03-08T00:45:08;61.11;38.53;71.65;;
67298;Laerm;65443;51.436;5.978;2024-03-08T00:45:20;33.68;30.28;39.04;;
67298;Laerm;65443;51.436;5.978;2024-03-08T00:45:30;30.40;28.90;32.76;;
67298;Laerm;65443;51.436;5.978;2024-03-08T00:45:40;30.27;29.05;31.81;;
67298;Laerm;65443;51.436;5.978;2024-03-08T00:45:52;30.37;28.76;31.73;;
67298;Laerm;65443;51.436;5.978;2024-03-08T00:46:03;30.28;28.90;32.45;;
67298;Laerm;65443;51.436;5.978;2024-03-08T00:46:13;30.13;28.75;31.78;;
67298;Laerm;65443;51.436;5.978;2024-03-08T00:46:25;30.05;28.62;31.39;;
67298;Laerm;65443;51.436;5.978;2024-03-08T00:46:35;30.12;28.98;32.28;;
67298;Laerm;65443;51.436;5.978;2024-03-08T00:46:45;30.10;28.90;31.31;;
67298;Laerm;65443;51.436;5.978;2024-03-08T00:46:56;30.19;28.82;32.23;;
67298;Laerm;65443;51.436;5.978;2024-03-08T00:47:06;30.57;28.54;33.80;;
67298;Laerm;65443;51.436;5.978;2024-03-08T00:47:17;30.49;28.65;32.57;;
67298;Laerm;65443;51.436;5.978;2024-03-08T00:47:27;30.85;29.29;34.63;;
67298;Laerm;65443;51.436;5.978;2024-03-08T00:47:37;30.34;28.82;31.62;;
67298;Laerm;65443;51.436;5.978;2024-03-08T00:47:48;30.55;28.56;32.50;;
67298;Laerm;65443;51.436;5.978;2024-03-08T00:47:58;30.24;28.72;32.38;;
67298;Laerm;65443;51.436;5.978;2024-03-08T00:48:09;30.25;28.16;31.77;;
67298;Laerm;65443;51.436;5.978;2024-03-08T00:48:21;30.35;28.38;31.82;;
67298;Laerm;65443;51.436;5.978;2024-03-08T00:48:31;30.18;28.71;32.33;;
67298;Laerm;65443;51.436;5.978;2024-03-08T00:48:41;30.35;28.83;34.73;;
67298;Laerm;65443;51.436;5.978;2024-03-08T00:48:53;30.20;28.75;32.43;;
67298;Laerm;65443;51.436;5.978;2024-03-08T00:49:03;30.21;28.48;31.91;;
67298;Laerm;65443;51.436;5.978;2024-03-08T00:49:14;30.27;28.76;31.75;;
67298;Laerm;65443;51.436;5.978;2024-03-08T00:49:25;30.60;28.97;36.70;;
67298;Laerm;65443;51.436;5.978;2024-03-08T00:49:36;31.41;29.05;39.91;;
67298;Laerm;65443;51.436;5.978;2024-03-08T00:49:49;30.84;28.84;45.26;;
67298;Laerm;65443;51.436;5.978;2024-03-08T00:50:00;30.66;29.16;34.06;;
67298;Laerm;65443;51.436;5.978;2024-03-08T00:50:14;30.71;29.12;34.12;;
67298;Laerm;65443;51.436;5.978;2024-03-08T00:50:24;31.16;29.44;33.15;;
67298;Laerm;65443;51.436;5.978;2024-03-08T00:50:34;52.33;31.91;64.42;;
67298;Laerm;65443;51.436;5.978;2024-03-08T00:50:44;46.78;37.85;56.84;;
67298;Laerm;65443;51.436;5.978;2024-03-08T00:50:55;37.69;35.62;40.65;;
67298;Laerm;65443;51.436;5.978;2024-03-08T00:51:06;37.38;32.00;42.26;;
67298;Laerm;65443;51.436;5.978;2024-03-08T00:51:16;32.75;30.22;35.57;;
67298;Laerm;65443;51.436;5.978;2024-03-08T00:51:26;31.63;29.46;34.19;;
67298;Laerm;65443;51.436;5.978;2024-03-08T00:51:37;33.72;30.24;38.10;;
67298;Laerm;65443;51.436;5.978;2024-03-08T00:51:47;33.75;30.74;36.88;;
67298;Laerm;65443;51.436;5.978;2024-03-08T00:51:58;32.28;30.45;34.50;;
67298;Laerm;65443;51.436;5.978;2024-03-08T00:52:08;34.31;31.99;37.48;;
67298;Laerm;65443;51.436;5.978;2024-03-08T00:52:19;34.49;31.50;37.22;;
67298;Laerm;65443;51.436;5.978;2024-03-08T00:52:29;32.81;30.82;35.38;;
67298;Laerm;65443;51.436;5.978;2024-03-08T00:52:40;31.79;29.99;33.78;;
67298;Laerm;65443;51.436;5.978;2024-03-08T00:52:50;32.14;30.03;34.09;;
67298;Laerm;65443;51.436;5.978;2024-03-08T00:53:00;32.77;30.21;35.75;;
67298;Laerm;65443;51.436;5.978;2024-03-08T00:53:11;31.95;30.07;34.24;;
67298;Laerm;65443;51.436;5.978;2024-03-08T00:53:21;32.82;30.40;35.66;;
67298;Laerm;65443;51.436;5.978;2024-03-08T00:53:32;32.92;30.37;36.04;;
67298;Laerm;65443;51.436;5.978;2024-03-08T00:53:42;31.33;29.89;34.27;;
67298;Laerm;65443;51.436;5.978;2024-03-08T00:53:53;30.76;29.18;34.00;;
67298;Laerm;65443;51.436;5.978;2024-03-08T00:54:03;30.47;28.96;31.84;;
67298;Laerm;65443;51.436;5.978;2024-03-08T00:54:13;30.37;28.94;32.37;;
67298;Laerm;65443;51.436;5.978;2024-03-08T00:54:25;30.23;28.95;31.50;;
67298;Laerm;65443;51.436;5.978;2024-03-08T00:54:35;30.14;28.99;31.53;;
67298;Laerm;65443;51.436;5.978;2024-03-08T00:54:48;30.22;28.33;31.58;;
67298;Laerm;65443;51.436;5.978;2024-03-08T00:54:59;30.33;29.23;32.13;;
67298;Laerm;65443;51.436;5.978;2024-03-08T00:55:09;30.45;29.17;32.15;;
67298;Laerm;65443;51.436;5.978;2024-03-08T00:55:20;30.35;29.08;31.56;;
67298;Laerm;65443;51.436;5.978;2024-03-08T00:55:31;30.44;28.93;31.64;;
67298;Laerm;65443;51.436;5.978;2024-03-08T00:55:41;30.60;28.70;32.32;;
67298;Laerm;65443;51.436;5.978;2024-03-08T00:55:52;30.53;29.16;32.50;;
67298;Laerm;65443;51.436;5.978;2024-03-08T00:56:03;30.60;28.73;32.55;;
67298;Laerm;65443;51.436;5.978;2024-03-08T00:56:14;30.42;28.97;32.14;;
67298;Laerm;65443;51.436;5.978;2024-03-08T00:56:24;30.36;28.75;31.92;;
67298;Laerm;65443;51.436;5.978;2024-03-08T00:56:35;30.28;28.94;31.53;;
67298;Laerm;65443;51.436;5.978;2024-03-08T00:56:45;30.51;29.33;31.95;;
67298;Laerm;65443;51.436;5.978;2024-03-08T00:56:56;30.55;28.89;32.01;;
67298;Laerm;65443;51.436;5.978;2024-03-08T00:57:06;30.64;29.04;32.01;;
67298;Laerm;65443;51.436;5.978;2024-03-08T00:57:16;30.96;29.04;32.45;;
67298;Laerm;65443;51.436;5.978;2024-03-08T00:57:27;31.75;29.85;34.91;;
67298;Laerm;65443;51.436;5.978;2024-03-08T00:57:38;33.98;29.46;39.74;;
67298;Laerm;65443;51.436;5.978;2024-03-08T00:57:48;36.96;30.95;42.25;;
67298;Laerm;65443;51.436;5.978;2024-03-08T00:57:59;39.78;34.72;43.25;;
67298;Laerm;65443;51.436;5.978;2024-03-08T00:58:09;38.49;34.25;42.18;;
67298;Laerm;65443;51.436;5.978;2024-03-08T00:58:19;38.52;33.32;41.66;;
67298;Laerm;65443;51.436;5.978;2024-03-08T00:58:30;41.87;38.57;44.95;;
67298;Laerm;65443;51.436;5.978;2024-03-08T00:58:40;40.43;37.02;42.58;;
67298;Laerm;65443;51.436;5.978;2024-03-08T00:58:51;38.11;35.28;40.90;;
67298;Laerm;65443;51.436;5.978;2024-03-08T00:59:01;42.23;35.67;50.87;;
67298;Laerm;65443;51.436;5.978;2024-03-08T00:59:12;53.99;47.84;58.01;;
67298;Laerm;65443;51.436;5.978;2024-03-08T00:59:24;47.57;38.07;54.82;;
67298;Laerm;65443;51.436;5.978;2024-03-08T00:59:34;38.28;33.44;42.17;;
67298;Laerm;65443;51.436;5.978;2024-03-08T00:59:44;32.84;30.87;36.40;;
67298;Laerm;65443;51.436;5.978;2024-03-08T00:59:55;31.14;29.61;32.89;;
67298;Laerm;65443;51.436;5.978;2024-03-08T01:00:06;59.08;29.25;75.82;;